createdAt,value
2019-05-16T00:01:09.845Z,22.77
2019-05-16T00:03:41.143Z,22.13
2019-05-16T00:06:12.837Z,21.63
2019-05-16T00:08:44.159Z,22.43
2019-05-16T00:11:17.786Z,23.73
2019-05-16T00:13:49.046Z,22.23
2019-05-16T00:16:20.638Z,23.43
2019-05-16T00:18:51.963Z,24.10
2019-05-16T00:21:23.547Z,24.07
2019-05-16T00:23:54.929Z,22.23
2019-05-16T00:26:28.194Z,24.93
2019-05-16T00:28:59.337Z,23.67
2019-05-16T00:31:30.669Z,24.10
2019-05-16T00:34:01.998Z,24.63
2019-05-16T00:36:33.373Z,22.73
2019-05-16T00:39:08.214Z,21.20
2019-05-16T00:41:38.990Z,23.93
2019-05-16T00:44:10.382Z,24.23
2019-05-16T00:46:41.702Z,25.03
2019-05-16T00:49:13.193Z,25.23
2019-05-16T00:51:44.722Z,21.87
2019-05-16T00:54:18.446Z,21.00
2019-05-16T00:56:49.098Z,21.20
2019-05-16T00:59:20.936Z,21.97
2019-05-16T01:01:52.290Z,23.70
2019-05-16T01:04:23.662Z,21.70
2019-05-16T01:06:55.083Z,23.97
2019-05-16T01:09:28.254Z,22.47
2019-05-16T01:11:59.944Z,23.87
2019-05-16T01:14:31.535Z,23.97
2019-05-16T01:17:02.862Z,24.57
2019-05-16T01:19:34.163Z,24.73
2019-05-16T01:22:08.295Z,24.80
2019-05-16T01:24:41.537Z,25.17
2019-05-16T01:27:12.752Z,24.90
2019-05-16T01:29:47.606Z,24.77
2019-05-16T01:32:19.150Z,25.17
2019-05-16T01:34:50.476Z,25.20
2019-05-16T01:37:21.857Z,25.40
2019-05-16T01:39:53.511Z,24.47
2019-05-16T01:42:24.846Z,24.90
2019-05-16T01:44:57.869Z,25.20
2019-05-16T01:47:31.073Z,24.50
2019-05-16T01:50:02.499Z,24.30
2019-05-16T01:52:33.845Z,23.77
2019-05-16T01:55:05.396Z,24.87
2019-05-16T01:57:38.847Z,24.07
2019-05-16T02:00:12.753Z,25.13
2019-05-16T02:02:44.214Z,22.57
2019-05-16T02:05:15.714Z,24.50
2019-05-16T02:07:48.015Z,26.20
2019-05-16T02:10:19.732Z,24.00
2019-05-16T02:12:51.259Z,26.50
2019-05-16T02:15:22.669Z,25.70
2019-05-16T02:17:55.077Z,27.13
2019-05-16T02:20:28.302Z,25.73
2019-05-16T02:22:59.651Z,26.23
2019-05-16T02:25:31.003Z,25.90
2019-05-16T02:28:02.369Z,24.93
2019-05-16T02:30:33.805Z,25.47
2019-05-16T02:33:05.354Z,26.17
2019-05-16T02:35:36.859Z,25.07
2019-05-16T02:38:11.176Z,25.70
2019-05-16T02:40:43.278Z,28.00
2019-05-16T02:43:16.326Z,26.70
2019-05-16T02:45:47.788Z,27.17
2019-05-16T02:48:21.553Z,27.13
2019-05-16T02:50:53.175Z,25.93
2019-05-16T02:53:24.619Z,26.03
2019-05-16T02:55:55.999Z,24.57
2019-05-16T02:58:30.499Z,24.57
2019-05-16T03:01:01.795Z,25.50
2019-05-16T03:03:33.588Z,26.00
2019-05-16T03:06:04.969Z,26.20
2019-05-16T03:08:40.969Z,24.77
2019-05-16T03:11:11.854Z,24.57
2019-05-16T03:13:45.334Z,26.00
2019-05-16T03:16:17.008Z,25.10
2019-05-16T03:18:51.593Z,27.03
2019-05-16T03:21:24.628Z,26.07
2019-05-16T03:24:00.625Z,25.37
2019-05-16T03:26:31.591Z,25.77
2019-05-16T03:29:04.685Z,26.40
2019-05-16T03:31:36.113Z,27.63
2019-05-16T03:34:08.149Z,28.73
2019-05-16T03:36:44.056Z,27.37
2019-05-16T03:39:15.070Z,28.50
2019-05-16T03:41:50.691Z,28.23
2019-05-16T03:44:21.265Z,29.47
2019-05-16T03:46:52.519Z,28.67
2019-05-16T03:49:23.807Z,27.67
2019-05-16T03:51:55.150Z,26.57
2019-05-16T03:54:26.606Z,29.20
2019-05-16T03:57:00.283Z,28.00
2019-05-16T03:59:31.636Z,29.57
2019-05-16T04:02:03.076Z,27.60
2019-05-16T04:04:34.349Z,28.50
2019-05-16T04:07:05.794Z,28.57
2019-05-16T04:09:40.876Z,27.67
2019-05-16T04:12:10.885Z,27.07
2019-05-16T04:14:42.392Z,27.23
2019-05-16T04:17:13.778Z,27.37
2019-05-16T04:19:45.095Z,27.30
2019-05-16T04:22:16.677Z,26.60
2019-05-16T04:24:51.001Z,28.40
2019-05-16T04:27:22.723Z,27.97
2019-05-16T04:29:54.125Z,28.10
2019-05-16T04:32:25.449Z,25.77
2019-05-16T04:34:56.761Z,24.77
2019-05-16T04:37:31.394Z,25.00
2019-05-16T04:40:02.919Z,26.10
2019-05-16T04:42:34.290Z,25.13
2019-05-16T04:45:05.938Z,25.27
2019-05-16T04:47:41.074Z,24.17
2019-05-16T04:50:11.853Z,22.80
2019-05-16T04:52:43.591Z,25.10
2019-05-16T04:55:14.870Z,24.40
2019-05-16T04:57:46.207Z,23.80
2019-05-16T05:00:21.145Z,23.07
2019-05-16T05:02:52.017Z,22.50
2019-05-16T05:05:23.786Z,23.00
2019-05-16T05:07:55.208Z,22.10
2019-05-16T05:10:26.548Z,20.67
2019-05-16T05:12:57.849Z,21.23
2019-05-16T05:15:30.646Z,22.33
2019-05-16T05:18:40.946Z,19.60
2019-05-16T05:21:13.138Z,20.27
2019-05-16T05:23:44.579Z,20.50
2019-05-16T05:26:15.929Z,21.73
2019-05-16T05:28:47.256Z,22.20
2019-05-16T05:31:23.853Z,20.27
2019-05-16T05:33:51.638Z,21.70
2019-05-16T05:36:23.014Z,21.07
2019-05-16T05:39:07.935Z,19.80
2019-05-16T05:41:27.517Z,21.70
2019-05-16T05:43:59.834Z,20.00
2019-05-16T05:46:31.801Z,21.30
2019-05-16T05:49:03.205Z,20.77
2019-05-16T05:51:34.860Z,20.40
2019-05-16T05:54:06.221Z,20.33
2019-05-16T05:56:39.683Z,18.60
2019-05-16T05:59:11.348Z,19.63
2019-05-16T06:01:43.073Z,18.47
2019-05-16T06:04:14.552Z,20.33
2019-05-16T06:06:45.950Z,18.13
2019-05-16T06:09:26.220Z,18.60
2019-05-16T06:11:50.477Z,18.10
2019-05-16T06:14:21.851Z,17.70
2019-05-16T06:16:53.226Z,17.37
2019-05-16T06:19:24.615Z,17.63
2019-05-16T06:21:56.118Z,18.57
2019-05-16T06:24:27.437Z,18.50
2019-05-16T06:27:00.905Z,18.60
2019-05-16T06:29:32.033Z,20.00
2019-05-16T06:32:03.429Z,19.20
2019-05-16T06:34:34.854Z,18.97
2019-05-16T06:37:06.306Z,19.30
2019-05-16T06:39:42.767Z,19.00
2019-05-16T06:42:10.696Z,19.50
2019-05-16T06:44:42.091Z,18.40
2019-05-16T06:47:19.769Z,19.10
2019-05-16T06:49:46.435Z,17.87
2019-05-16T06:52:19.694Z,18.13
2019-05-16T06:54:53.729Z,16.87
2019-05-16T06:57:24.089Z,17.83
2019-05-16T06:59:55.433Z,16.60
2019-05-16T07:02:30.840Z,17.87
2019-05-16T07:05:01.091Z,17.87
2019-05-16T07:07:32.949Z,16.37
2019-05-16T07:10:05.244Z,17.60
2019-05-16T07:12:36.647Z,16.20
2019-05-16T07:15:12.435Z,15.03
2019-05-16T07:17:41.824Z,15.27
2019-05-16T07:20:14.489Z,17.20
2019-05-16T07:22:46.686Z,16.67
2019-05-16T07:25:20.596Z,16.57
2019-05-16T07:27:51.445Z,15.60
2019-05-16T07:30:23.075Z,15.23
2019-05-16T07:32:54.525Z,16.30
2019-05-16T07:35:25.892Z,16.60
2019-05-16T07:37:57.359Z,15.17
2019-05-16T07:40:30.814Z,16.40
2019-05-16T07:43:01.935Z,15.70
2019-05-16T07:45:33.292Z,16.70
2019-05-16T07:48:04.960Z,16.77
2019-05-16T07:50:36.327Z,13.63
2019-05-16T07:53:10.500Z,13.17
2019-05-16T07:55:42.363Z,14.00
2019-05-16T07:58:13.843Z,13.30
2019-05-16T08:00:52.428Z,13.70
2019-05-16T08:03:19.976Z,11.97
2019-05-16T08:05:52.238Z,11.43
2019-05-16T08:08:24.596Z,11.00
2019-05-16T08:10:56.994Z,9.90
2019-05-16T08:13:30.880Z,9.67
2019-05-16T08:16:02.776Z,9.77
2019-05-16T08:18:34.365Z,9.10
2019-05-16T08:21:05.761Z,9.40
2019-05-16T08:23:41.123Z,9.90
2019-05-16T08:26:12.754Z,9.53
2019-05-16T08:28:44.160Z,10.23
2019-05-16T08:31:17.255Z,9.23
2019-05-16T08:36:23.475Z,9.03
2019-05-16T08:38:54.810Z,8.90
2019-05-16T08:41:26.164Z,9.40
2019-05-16T08:44:00.919Z,9.60
2019-05-16T08:46:32.237Z,9.90
2019-05-16T08:49:03.685Z,9.50
2019-05-16T08:51:35.008Z,9.17
2019-05-16T08:54:06.352Z,9.30
2019-05-16T08:56:43.733Z,10.00
2019-05-16T08:59:13.491Z,10.27
2019-05-16T09:04:17.136Z,10.20
2019-05-16T09:06:52.352Z,9.13
2019-05-16T09:09:39.787Z,10.47
2019-05-16T09:10:30.560Z,9.13
2019-05-16T09:10:31.976Z,9.07
2019-05-16T09:11:57.424Z,8.93
2019-05-16T09:14:31.901Z,9.60
2019-05-16T09:17:00.919Z,9.53
2019-05-16T09:19:32.200Z,8.30
2019-05-16T09:22:03.806Z,8.57
2019-05-16T09:24:37.757Z,8.23
2019-05-16T09:27:12.511Z,10.27
2019-05-16T09:29:41.823Z,8.63
2019-05-16T09:32:22.233Z,8.77
2019-05-16T09:34:47.920Z,8.80
2019-05-16T09:37:19.567Z,10.40
2019-05-16T09:39:50.865Z,10.80
2019-05-16T09:42:22.141Z,12.23
2019-05-16T09:44:53.729Z,14.33
2019-05-16T09:47:27.933Z,11.10
2019-05-16T09:49:58.274Z,12.03
2019-05-16T09:52:29.683Z,12.00
2019-05-16T09:55:01.377Z,12.97
2019-05-16T09:57:33.335Z,12.93
2019-05-16T10:00:06.742Z,14.10
2019-05-16T10:02:38.356Z,15.10
2019-05-16T10:05:13.167Z,13.63
2019-05-16T10:07:43.033Z,14.20
2019-05-16T10:10:16.911Z,13.10
2019-05-16T10:12:48.019Z,15.20
2019-05-16T10:15:19.837Z,15.07
2019-05-16T10:17:51.148Z,15.03
2019-05-16T10:20:22.652Z,16.70
2019-05-16T10:22:54.033Z,15.63
2019-05-16T10:25:27.674Z,14.57
2019-05-16T10:27:58.532Z,16.33
2019-05-16T10:30:30.019Z,16.07
2019-05-16T10:33:01.493Z,14.47
2019-05-16T10:35:32.787Z,12.70
2019-05-16T10:38:04.084Z,12.10
2019-05-16T10:40:36.881Z,12.30
2019-05-16T10:43:08.423Z,10.73
2019-05-16T10:45:39.828Z,9.43
2019-05-16T10:48:27.063Z,9.37
2019-05-16T10:51:04.309Z,9.53
2019-05-16T10:54:01.086Z,9.07
2019-05-16T10:56:08.691Z,10.30
2019-05-16T10:58:59.628Z,10.40
2019-05-16T11:01:26.931Z,9.70
2019-05-16T11:03:49.193Z,9.17
2019-05-16T11:06:25.787Z,7.43
2019-05-16T11:08:53.809Z,9.37
2019-05-16T11:11:27.400Z,9.50
2019-05-16T11:13:58.194Z,7.17
2019-05-16T11:16:29.651Z,5.30
2019-05-16T11:19:14.106Z,4.30
2019-05-16T11:21:33.917Z,4.73
2019-05-16T11:24:11.717Z,5.67
2019-05-16T11:26:38.481Z,5.87
2019-05-16T11:29:09.879Z,6.33
2019-05-16T11:31:41.142Z,7.13
2019-05-16T11:34:12.487Z,7.20
2019-05-16T11:36:43.741Z,7.70
2019-05-16T11:39:17.267Z,5.50
2019-05-16T11:41:48.291Z,5.70
2019-05-16T11:44:19.644Z,5.37
2019-05-16T11:46:50.992Z,6.17
2019-05-16T11:49:22.308Z,5.30
2019-05-16T11:51:53.728Z,4.97
2019-05-16T11:54:26.594Z,6.10
2019-05-16T11:56:57.926Z,7.10
2019-05-16T11:59:29.223Z,6.20
2019-05-16T12:02:00.669Z,7.80
2019-05-16T12:04:31.971Z,6.63
2019-05-16T12:07:03.310Z,6.73
2019-05-16T12:09:46.376Z,6.40
2019-05-16T12:12:08.781Z,4.70
2019-05-16T12:14:40.370Z,5.30
2019-05-16T12:17:11.738Z,4.87
2019-05-16T12:19:47.052Z,4.60
2019-05-16T12:22:18.353Z,5.50
2019-05-16T12:24:49.825Z,4.17
2019-05-16T12:27:21.271Z,4.20
2019-05-16T12:29:55.532Z,4.60
2019-05-16T12:32:27.555Z,4.20
2019-05-16T12:34:58.586Z,4.90
2019-05-16T12:37:29.968Z,5.50
2019-05-16T12:40:01.593Z,6.20
2019-05-16T12:42:32.916Z,5.30
2019-05-16T12:45:04.383Z,4.57
2019-05-16T12:47:37.500Z,4.23
2019-05-16T12:50:09.653Z,4.80
2019-05-16T12:52:41.158Z,5.43
2019-05-16T12:55:12.693Z,4.33
2019-05-16T12:57:48.924Z,3.47
2019-05-16T13:00:19.357Z,3.73
2019-05-16T13:02:50.714Z,3.80
2019-05-16T13:05:22.227Z,4.20
2019-05-16T13:07:53.627Z,4.17
2019-05-16T13:10:27.037Z,4.13
2019-05-16T13:12:58.155Z,4.23
2019-05-16T13:15:29.480Z,3.80
2019-05-16T13:18:02.556Z,3.37
2019-05-16T13:20:34.417Z,3.50
2019-05-16T13:23:13.870Z,3.43
2019-05-16T13:25:38.914Z,3.20
2019-05-16T13:28:10.173Z,3.10
2019-05-16T13:30:41.498Z,2.97
2019-05-16T13:33:12.897Z,3.70
2019-05-16T13:35:46.970Z,3.73
2019-05-16T13:38:17.704Z,3.23
2019-05-16T13:40:49.134Z,3.40
2019-05-16T13:43:20.506Z,3.17
2019-05-16T13:45:51.853Z,3.30
2019-05-16T13:48:23.191Z,2.83
2019-05-16T13:51:08.421Z,2.80
2019-05-16T13:53:28.341Z,3.07
2019-05-16T13:55:59.704Z,2.77
2019-05-16T13:58:30.993Z,2.67
2019-05-16T14:01:02.243Z,3.03
2019-05-16T14:03:33.743Z,2.77
2019-05-16T14:06:07.228Z,2.43
2019-05-16T14:08:38.295Z,2.70
2019-05-16T14:11:10.822Z,2.87
2019-05-16T14:13:42.247Z,2.43
2019-05-16T14:16:13.524Z,3.40
2019-05-16T14:18:46.850Z,3.50
2019-05-16T14:21:18.375Z,3.80
2019-05-16T14:23:53.374Z,3.30
2019-05-16T14:26:22.916Z,3.07
2019-05-16T14:28:57.337Z,3.50
2019-05-16T14:31:27.607Z,3.17
2019-05-16T14:33:58.956Z,2.90
2019-05-16T14:36:30.283Z,2.20
2019-05-16T14:39:01.804Z,2.60
2019-05-16T14:41:33.135Z,2.40
2019-05-16T14:44:04.433Z,2.60
2019-05-16T14:46:38.367Z,3.10
2019-05-16T14:49:09.048Z,2.40
2019-05-16T14:51:40.387Z,3.07
2019-05-16T14:54:11.876Z,2.37
2019-05-16T14:56:43.198Z,3.33
2019-05-16T14:59:14.498Z,3.53
2019-05-16T15:01:47.280Z,3.47
2019-05-16T15:04:18.823Z,4.50
2019-05-16T15:06:50.076Z,3.17
2019-05-16T15:09:27.345Z,2.40
2019-05-16T15:11:58.662Z,3.10
2019-05-16T15:14:30.110Z,3.70
2019-05-16T15:17:11.191Z,2.90
2019-05-16T15:19:42.492Z,2.93
2019-05-16T15:22:16.780Z,3.80
2019-05-16T15:24:48.481Z,3.00
2019-05-16T15:27:29.306Z,3.03
2019-05-16T15:30:00.602Z,3.20
2019-05-16T15:32:32.039Z,3.50
2019-05-16T15:35:03.364Z,3.00
2019-05-16T15:37:37.306Z,4.00
2019-05-16T15:40:10.177Z,3.33
2019-05-16T15:42:41.625Z,3.60
2019-05-16T15:45:13.438Z,4.30
2019-05-16T15:47:44.861Z,3.27
2019-05-16T15:50:18.222Z,3.77
2019-05-16T15:52:49.634Z,2.93
2019-05-16T15:55:30.303Z,3.60
2019-05-16T15:58:01.986Z,3.70
2019-05-16T16:00:41.853Z,3.33
2019-05-16T16:03:27.150Z,3.37
2019-05-16T16:05:58.774Z,2.60
2019-05-16T16:08:30.415Z,4.60
2019-05-16T16:11:01.877Z,5.00
2019-05-16T16:13:40.931Z,4.80
2019-05-16T16:16:17.271Z,4.40
2019-05-16T16:18:48.402Z,4.40
2019-05-16T16:21:19.795Z,5.60
2019-05-16T16:23:51.251Z,6.03
2019-05-16T16:26:22.561Z,6.00
2019-05-16T16:28:53.815Z,5.40
2019-05-16T16:31:27.270Z,5.07
2019-05-16T16:33:58.357Z,5.07
2019-05-16T16:36:29.821Z,5.20
2019-05-16T16:39:01.350Z,5.90
2019-05-16T16:41:32.767Z,4.43
2019-05-16T16:44:04.126Z,5.47
2019-05-16T16:46:37.621Z,5.03
2019-05-16T16:49:08.679Z,4.27
2019-05-16T16:51:40.237Z,5.77
2019-05-16T16:54:11.827Z,5.70
2019-05-16T16:56:43.215Z,4.80
2019-05-16T16:59:17.092Z,5.33
2019-05-16T17:01:48.088Z,4.80
2019-05-16T17:04:19.434Z,4.93
2019-05-16T17:06:51.047Z,5.13
2019-05-16T17:09:22.387Z,5.10
2019-05-16T17:11:53.909Z,4.73
2019-05-16T17:14:26.332Z,5.47
2019-05-16T17:16:57.696Z,4.90
2019-05-16T17:19:29.031Z,4.23
2019-05-16T17:22:13.492Z,4.83
2019-05-16T17:24:36.602Z,4.90
2019-05-16T17:27:08.316Z,5.00
2019-05-16T17:29:42.233Z,4.67
2019-05-16T17:32:13.685Z,4.83
2019-05-16T17:34:44.968Z,5.47
2019-05-16T17:37:17.152Z,5.60
2019-05-16T17:39:48.620Z,4.97
2019-05-16T17:42:20.001Z,6.00
2019-05-16T17:44:51.402Z,4.87
2019-05-16T17:47:23.710Z,5.60
2019-05-16T17:49:55.189Z,5.20
2019-05-16T17:52:27.346Z,5.97
2019-05-16T17:54:58.816Z,5.40
2019-05-16T17:57:33.626Z,5.70
2019-05-16T18:00:07.083Z,5.23
2019-05-16T18:02:38.778Z,5.30
2019-05-16T18:05:10.458Z,5.60
2019-05-16T18:07:42.105Z,6.40
2019-05-16T18:10:18.491Z,5.90
2019-05-16T18:12:50.061Z,6.00
2019-05-16T18:15:23.724Z,6.10
2019-05-16T18:17:58.240Z,5.90
2019-05-16T18:20:30.124Z,5.60
2019-05-16T18:23:01.515Z,6.10
2019-05-16T18:25:33.228Z,6.20
2019-05-16T18:28:07.446Z,7.00
2019-05-16T18:30:37.833Z,6.20
2019-05-16T18:33:12.189Z,5.37
2019-05-16T18:35:43.628Z,5.23
2019-05-16T18:38:15.098Z,5.67
2019-05-16T18:40:47.382Z,5.67
2019-05-16T18:43:21.316Z,5.90
2019-05-16T18:45:51.921Z,5.70
2019-05-16T18:48:23.213Z,7.00
2019-05-16T18:50:57.125Z,7.23
2019-05-16T18:53:27.667Z,5.63
2019-05-16T18:55:59.004Z,5.17
2019-05-16T18:58:30.378Z,6.00
2019-05-16T19:01:01.870Z,4.33
2019-05-16T19:03:33.456Z,6.87
2019-05-16T19:06:07.557Z,6.80
2019-05-16T19:08:38.017Z,6.23
2019-05-16T19:11:09.641Z,6.43
2019-05-16T19:13:41.035Z,5.40
2019-05-16T19:16:12.440Z,6.30
2019-05-16T19:18:43.725Z,5.93
2019-05-16T19:21:16.847Z,5.70
2019-05-16T19:23:48.335Z,5.43
2019-05-16T19:26:19.697Z,6.30
2019-05-16T19:28:51.148Z,6.83
2019-05-16T19:31:22.690Z,6.00
2019-05-16T19:33:56.840Z,6.43
2019-05-16T19:36:28.269Z,6.50
2019-05-16T19:38:59.867Z,6.60
2019-05-16T19:41:31.122Z,6.60
2019-05-16T19:44:02.729Z,6.00
2019-05-16T19:46:34.029Z,6.10
2019-05-16T19:49:06.490Z,6.47
2019-05-16T19:51:37.803Z,6.00
2019-05-16T19:54:10.680Z,5.63
2019-05-16T19:56:42.389Z,6.10
2019-05-16T19:59:13.869Z,6.30
2019-05-16T20:01:48.388Z,6.67
2019-05-16T20:04:19.805Z,5.70
2019-05-16T20:06:51.506Z,6.33
2019-05-16T20:09:27.138Z,6.13
2019-05-16T20:11:58.314Z,6.07
2019-05-16T20:14:29.782Z,6.33
2019-05-16T20:17:01.214Z,7.30
2019-05-16T20:19:32.607Z,6.90
2019-05-16T20:22:07.512Z,7.10
2019-05-16T20:24:38.698Z,6.90
2019-05-16T20:27:11.800Z,7.20
2019-05-16T20:29:43.190Z,6.37
2019-05-16T20:32:16.742Z,7.30
2019-05-16T20:34:47.858Z,6.20
2019-05-16T20:37:19.395Z,7.10
2019-05-16T20:39:50.721Z,6.97
2019-05-16T20:42:22.278Z,7.10
2019-05-16T20:44:53.564Z,6.43
2019-05-16T20:47:27.051Z,7.07
2019-05-16T20:49:58.069Z,6.67
2019-05-16T20:52:29.424Z,6.97
2019-05-16T20:55:00.752Z,7.40
2019-05-16T20:57:32.311Z,7.17
2019-05-16T21:00:04.062Z,7.13
2019-05-16T21:02:37.613Z,8.00
2019-05-16T21:05:09.176Z,8.20
2019-05-16T21:07:40.587Z,9.10
2019-05-16T21:10:12.685Z,8.83
2019-05-16T21:12:46.821Z,8.13
2019-05-16T21:15:18.882Z,8.20
2019-05-16T21:17:50.218Z,8.03
2019-05-16T21:20:21.494Z,7.83
2019-05-16T21:22:52.869Z,7.40
2019-05-16T21:25:26.417Z,7.63
2019-05-16T21:27:57.804Z,8.20
2019-05-16T21:30:30.068Z,8.30
2019-05-16T21:33:01.821Z,8.87
2019-05-16T21:35:33.249Z,9.00
2019-05-16T21:38:08.588Z,9.40
2019-05-16T21:40:38.153Z,8.30
2019-05-16T21:43:10.240Z,8.20
2019-05-16T21:45:41.944Z,8.30
2019-05-16T21:48:13.391Z,8.73
2019-05-16T21:50:46.316Z,9.23
2019-05-16T21:53:17.886Z,8.27
2019-05-16T21:55:49.183Z,8.70
2019-05-16T21:58:20.464Z,8.60
2019-05-16T22:00:56.708Z,8.90
2019-05-16T22:03:28.237Z,7.73
2019-05-16T22:05:59.866Z,8.53
2019-05-16T22:08:31.304Z,8.33
2019-05-16T22:11:02.784Z,9.00
2019-05-16T22:13:37.792Z,8.97
2019-05-16T22:16:11.473Z,9.10
2019-05-16T22:18:42.815Z,8.90
2019-05-16T22:21:16.355Z,9.20
2019-05-16T22:23:47.287Z,9.03
2019-05-16T22:26:18.552Z,8.40
2019-05-16T22:28:49.906Z,9.10
2019-05-16T22:31:21.268Z,9.33
2019-05-16T22:33:52.904Z,9.13
2019-05-16T22:36:26.607Z,8.50
2019-05-16T22:38:59.638Z,9.67
2019-05-16T22:41:31.293Z,9.40
2019-05-16T22:44:02.651Z,9.93
2019-05-16T22:46:33.955Z,11.33
2019-05-16T22:49:07.439Z,9.53
2019-05-16T22:51:38.412Z,10.03
2019-05-16T22:54:09.739Z,9.43
2019-05-16T22:56:41.248Z,9.23
2019-05-16T22:59:12.711Z,10.00
2019-05-16T23:01:44.237Z,9.40
2019-05-16T23:04:16.780Z,9.50
2019-05-16T23:06:48.209Z,9.30
2019-05-16T23:09:19.487Z,9.57
2019-05-16T23:11:50.863Z,9.50
2019-05-16T23:14:22.143Z,9.80
2019-05-16T23:16:53.662Z,9.93
2019-05-16T23:19:26.463Z,9.47
2019-05-16T23:21:57.905Z,9.40
2019-05-16T23:24:29.276Z,9.70
2019-05-16T23:27:02.197Z,9.47
2019-05-16T23:29:33.632Z,10.63
2019-05-16T23:32:07.178Z,10.50
2019-05-16T23:34:38.106Z,9.00
2019-05-16T23:37:09.648Z,9.10
2019-05-16T23:39:41.047Z,10.40
2019-05-16T23:42:12.500Z,10.40
2019-05-16T23:44:43.999Z,9.23
2019-05-16T23:47:16.512Z,9.60
2019-05-16T23:49:47.856Z,10.23
2019-05-16T23:52:19.123Z,9.43
2019-05-16T23:54:51.611Z,10.20
2019-05-16T23:57:22.964Z,10.07
2019-05-16T23:59:56.618Z,10.90
